sensor_id;sensor_type;location;lat;lon;timestamp;pressure;altitude;pressure_sealevel;temperature
15575;BMP180;7888;46.748;8.102;2022-12-31T00:02:05;94531.00;;;12.10
15575;BMP180;7888;46.748;8.102;2022-12-31T00:04:31;94537.00;;;12.10
15575;BMP180;7888;46.748;8.102;2022-12-31T00:06:56;94542.00;;;12.10
15575;BMP180;7888;46.748;8.102;2022-12-31T00:09:22;94548.00;;;12.10
15575;BMP180;7888;46.748;8.102;2022-12-31T00:11:48;94539.00;;;12.10
15575;BMP180;7888;46.748;8.102;2022-12-31T00:14:14;94546.00;;;12.10
15575;BMP180;7888;46.748;8.102;2022-12-31T00:16:41;94539.00;;;12.20
15575;BMP180;7888;46.748;8.102;2022-12-31T00:19:12;94534.00;;;12.20
15575;BMP180;7888;46.748;8.102;2022-12-31T00:21:38;94527.00;;;12.20
15575;BMP180;7888;46.748;8.102;2022-12-31T00:24:05;94541.00;;;12.20
15575;BMP180;7888;46.748;8.102;2022-12-31T00:26:33;94544.00;;;12.30
15575;BMP180;7888;46.748;8.102;2022-12-31T00:29:00;94538.00;;;12.20
15575;BMP180;7888;46.748;8.102;2022-12-31T00:31:29;94540.00;;;12.20
15575;BMP180;7888;46.748;8.102;2022-12-31T00:33:57;94539.00;;;12.20
15575;BMP180;7888;46.748;8.102;2022-12-31T00:36:32;94527.00;;;12.20
15575;BMP180;7888;46.748;8.102;2022-12-31T00:39:00;94523.00;;;12.30
15575;BMP180;7888;46.748;8.102;2022-12-31T00:41:27;94524.00;;;12.20
15575;BMP180;7888;46.748;8.102;2022-12-31T00:43:54;94529.00;;;12.20
15575;BMP180;7888;46.748;8.102;2022-12-31T00:46:20;94524.00;;;12.20
15575;BMP180;7888;46.748;8.102;2022-12-31T00:48:46;94510.00;;;12.20
15575;BMP180;7888;46.748;8.102;2022-12-31T00:51:15;94506.00;;;12.10
15575;BMP180;7888;46.748;8.102;2022-12-31T00:53:42;94508.00;;;12.10
15575;BMP180;7888;46.748;8.102;2022-12-31T00:56:29;94502.00;;;12.00
15575;BMP180;7888;46.748;8.102;2022-12-31T00:58:56;94509.00;;;12.00
15575;BMP180;7888;46.748;8.102;2022-12-31T01:01:29;94502.00;;;12.00
15575;BMP180;7888;46.748;8.102;2022-12-31T01:04:13;94496.00;;;12.00
15575;BMP180;7888;46.748;8.102;2022-12-31T01:06:41;94496.00;;;12.00
15575;BMP180;7888;46.748;8.102;2022-12-31T01:09:08;94490.00;;;12.00
15575;BMP180;7888;46.748;8.102;2022-12-31T01:11:35;94487.00;;;12.00
15575;BMP180;7888;46.748;8.102;2022-12-31T01:14:17;94496.00;;;12.00
15575;BMP180;7888;46.748;8.102;2022-12-31T01:16:50;94495.00;;;12.00
15575;BMP180;7888;46.748;8.102;2022-12-31T01:19:23;94497.00;;;12.00
15575;BMP180;7888;46.748;8.102;2022-12-31T01:21:50;94497.00;;;12.00
15575;BMP180;7888;46.748;8.102;2022-12-31T01:24:17;94501.00;;;12.00
15575;BMP180;7888;46.748;8.102;2022-12-31T01:26:44;94493.00;;;12.00
15575;BMP180;7888;46.748;8.102;2022-12-31T01:29:12;94504.00;;;12.10
15575;BMP180;7888;46.748;8.102;2022-12-31T01:31:38;94502.00;;;12.10
15575;BMP180;7888;46.748;8.102;2022-12-31T01:34:06;94503.00;;;12.10
15575;BMP180;7888;46.748;8.102;2022-12-31T01:36:34;94496.00;;;12.10
15575;BMP180;7888;46.748;8.102;2022-12-31T01:39:04;94497.00;;;12.10
15575;BMP180;7888;46.748;8.102;2022-12-31T01:41:35;94483.00;;;12.10
15575;BMP180;7888;46.748;8.102;2022-12-31T01:46:46;94473.00;;;12.10
15575;BMP180;7888;46.748;8.102;2022-12-31T01:54:37;94477.00;;;12.10
15575;BMP180;7888;46.748;8.102;2022-12-31T01:57:05;94470.00;;;12.10
15575;BMP180;7888;46.748;8.102;2022-12-31T01:59:32;94474.00;;;12.10
15575;BMP180;7888;46.748;8.102;2022-12-31T02:01:59;94463.00;;;12.10
15575;BMP180;7888;46.748;8.102;2022-12-31T02:04:26;94467.00;;;12.10
15575;BMP180;7888;46.748;8.102;2022-12-31T02:09:26;94460.00;;;12.10
15575;BMP180;7888;46.748;8.102;2022-12-31T02:11:52;94473.00;;;12.10
15575;BMP180;7888;46.748;8.102;2022-12-31T02:14:30;94468.00;;;12.00
15575;BMP180;7888;46.748;8.102;2022-12-31T02:31:36;94443.00;;;12.10
15575;BMP180;7888;46.748;8.102;2022-12-31T02:34:26;94441.00;;;12.10
15575;BMP180;7888;46.748;8.102;2022-12-31T02:36:55;94456.00;;;12.10
15575;BMP180;7888;46.748;8.102;2022-12-31T02:39:24;94457.00;;;12.10
15575;BMP180;7888;46.748;8.102;2022-12-31T02:41:51;94468.00;;;12.10
15575;BMP180;7888;46.748;8.102;2022-12-31T02:44:26;94470.00;;;12.10
15575;BMP180;7888;46.748;8.102;2022-12-31T02:55:26;94486.00;;;12.20
15575;BMP180;7888;46.748;8.102;2022-12-31T02:58:20;94477.00;;;12.10
15575;BMP180;7888;46.748;8.102;2022-12-31T03:00:56;94482.00;;;12.10
15575;BMP180;7888;46.748;8.102;2022-12-31T03:03:41;94469.00;;;12.20
15575;BMP180;7888;46.748;8.102;2022-12-31T03:06:10;94475.00;;;12.20
15575;BMP180;7888;46.748;8.102;2022-12-31T03:08:40;94469.00;;;12.20
15575;BMP180;7888;46.748;8.102;2022-12-31T03:11:26;94479.00;;;12.20
15575;BMP180;7888;46.748;8.102;2022-12-31T03:14:10;94480.00;;;12.20
15575;BMP180;7888;46.748;8.102;2022-12-31T03:16:36;94476.00;;;12.20
15575;BMP180;7888;46.748;8.102;2022-12-31T03:19:02;94470.00;;;12.30
15575;BMP180;7888;46.748;8.102;2022-12-31T03:21:46;94465.00;;;12.30
15575;BMP180;7888;46.748;8.102;2022-12-31T03:24:30;94466.00;;;12.30
15575;BMP180;7888;46.748;8.102;2022-12-31T03:27:14;94463.00;;;12.30
15575;BMP180;7888;46.748;8.102;2022-12-31T03:29:40;94466.00;;;12.30
15575;BMP180;7888;46.748;8.102;2022-12-31T03:32:05;94456.00;;;12.30
15575;BMP180;7888;46.748;8.102;2022-12-31T03:34:31;94445.00;;;12.30
15575;BMP180;7888;46.748;8.102;2022-12-31T03:36:57;94451.00;;;12.30
15575;BMP180;7888;46.748;8.102;2022-12-31T03:39:23;94452.00;;;12.30
15575;BMP180;7888;46.748;8.102;2022-12-31T03:41:48;94455.00;;;12.30
15575;BMP180;7888;46.748;8.102;2022-12-31T03:44:14;94464.00;;;12.30
15575;BMP180;7888;46.748;8.102;2022-12-31T03:46:40;94453.00;;;12.30
15575;BMP180;7888;46.748;8.102;2022-12-31T03:49:05;94458.00;;;12.30
15575;BMP180;7888;46.748;8.102;2022-12-31T03:51:31;94466.00;;;12.30
15575;BMP180;7888;46.748;8.102;2022-12-31T03:53:57;94469.00;;;12.30
15575;BMP180;7888;46.748;8.102;2022-12-31T03:56:23;94460.00;;;12.30
15575;BMP180;7888;46.748;8.102;2022-12-31T03:58:48;94473.00;;;12.30
15575;BMP180;7888;46.748;8.102;2022-12-31T04:01:14;94475.00;;;12.30
15575;BMP180;7888;46.748;8.102;2022-12-31T04:03:40;94483.00;;;12.30
15575;BMP180;7888;46.748;8.102;2022-12-31T04:06:06;94490.00;;;12.30
15575;BMP180;7888;46.748;8.102;2022-12-31T04:08:32;94482.00;;;12.40
15575;BMP180;7888;46.748;8.102;2022-12-31T04:10:57;94475.00;;;12.40
15575;BMP180;7888;46.748;8.102;2022-12-31T04:13:23;94483.00;;;12.40
15575;BMP180;7888;46.748;8.102;2022-12-31T04:15:49;94465.00;;;12.30
15575;BMP180;7888;46.748;8.102;2022-12-31T04:18:16;94476.00;;;12.30
15575;BMP180;7888;46.748;8.102;2022-12-31T04:20:42;94479.00;;;12.40
15575;BMP180;7888;46.748;8.102;2022-12-31T04:23:07;94483.00;;;12.40
15575;BMP180;7888;46.748;8.102;2022-12-31T04:25:33;94482.00;;;12.40
15575;BMP180;7888;46.748;8.102;2022-12-31T04:27:59;94482.00;;;12.40
15575;BMP180;7888;46.748;8.102;2022-12-31T04:30:25;94466.00;;;12.40
15575;BMP180;7888;46.748;8.102;2022-12-31T04:32:50;94479.00;;;12.50
15575;BMP180;7888;46.748;8.102;2022-12-31T04:35:17;94474.00;;;12.50
15575;BMP180;7888;46.748;8.102;2022-12-31T04:37:42;94467.00;;;12.50
15575;BMP180;7888;46.748;8.102;2022-12-31T04:40:09;94487.00;;;12.50
15575;BMP180;7888;46.748;8.102;2022-12-31T04:42:35;94485.00;;;12.50
15575;BMP180;7888;46.748;8.102;2022-12-31T04:45:01;94486.00;;;12.50
15575;BMP180;7888;46.748;8.102;2022-12-31T04:47:27;94491.00;;;12.40
15575;BMP180;7888;46.748;8.102;2022-12-31T04:49:52;94492.00;;;12.50
15575;BMP180;7888;46.748;8.102;2022-12-31T04:52:18;94489.00;;;12.50
15575;BMP180;7888;46.748;8.102;2022-12-31T04:54:44;94496.00;;;12.50
15575;BMP180;7888;46.748;8.102;2022-12-31T04:57:10;94496.00;;;12.50
15575;BMP180;7888;46.748;8.102;2022-12-31T04:59:35;94496.00;;;12.40
15575;BMP180;7888;46.748;8.102;2022-12-31T05:02:01;94498.00;;;12.40
15575;BMP180;7888;46.748;8.102;2022-12-31T05:04:27;94505.00;;;12.50
15575;BMP180;7888;46.748;8.102;2022-12-31T05:06:53;94507.00;;;12.50
15575;BMP180;7888;46.748;8.102;2022-12-31T05:09:19;94506.00;;;12.50
15575;BMP180;7888;46.748;8.102;2022-12-31T05:11:46;94502.00;;;12.50
15575;BMP180;7888;46.748;8.102;2022-12-31T05:14:11;94508.00;;;12.60
15575;BMP180;7888;46.748;8.102;2022-12-31T05:16:37;94492.00;;;12.60
15575;BMP180;7888;46.748;8.102;2022-12-31T05:19:03;94492.00;;;12.60
15575;BMP180;7888;46.748;8.102;2022-12-31T05:21:31;94500.00;;;12.60
15575;BMP180;7888;46.748;8.102;2022-12-31T05:23:56;94497.00;;;12.60
15575;BMP180;7888;46.748;8.102;2022-12-31T05:26:22;94491.00;;;12.70
15575;BMP180;7888;46.748;8.102;2022-12-31T05:28:48;94488.00;;;12.60
15575;BMP180;7888;46.748;8.102;2022-12-31T05:31:13;94495.00;;;12.70
15575;BMP180;7888;46.748;8.102;2022-12-31T05:33:39;94504.00;;;12.70
15575;BMP180;7888;46.748;8.102;2022-12-31T05:36:05;94500.00;;;12.70
15575;BMP180;7888;46.748;8.102;2022-12-31T05:38:31;94498.00;;;12.70
15575;BMP180;7888;46.748;8.102;2022-12-31T05:40:59;94494.00;;;12.70
15575;BMP180;7888;46.748;8.102;2022-12-31T05:43:26;94498.00;;;12.70
15575;BMP180;7888;46.748;8.102;2022-12-31T05:45:52;94493.00;;;12.70
15575;BMP180;7888;46.748;8.102;2022-12-31T05:48:17;94505.00;;;12.70
15575;BMP180;7888;46.748;8.102;2022-12-31T05:50:43;94506.00;;;12.60
15575;BMP180;7888;46.748;8.102;2022-12-31T05:53:09;94500.00;;;12.70
15575;BMP180;7888;46.748;8.102;2022-12-31T05:55:35;94496.00;;;12.60
15575;BMP180;7888;46.748;8.102;2022-12-31T05:58:01;94503.00;;;12.70
15575;BMP180;7888;46.748;8.102;2022-12-31T06:00:26;94508.00;;;12.70
15575;BMP180;7888;46.748;8.102;2022-12-31T06:02:52;94508.00;;;12.70
15575;BMP180;7888;46.748;8.102;2022-12-31T06:05:18;94504.00;;;12.70
15575;BMP180;7888;46.748;8.102;2022-12-31T06:07:44;94504.00;;;12.80
15575;BMP180;7888;46.748;8.102;2022-12-31T06:10:10;94512.00;;;12.80
15575;BMP180;7888;46.748;8.102;2022-12-31T06:12:36;94502.00;;;12.80
15575;BMP180;7888;46.748;8.102;2022-12-31T06:15:02;94509.00;;;12.80
15575;BMP180;7888;46.748;8.102;2022-12-31T06:17:29;94501.00;;;12.80
15575;BMP180;7888;46.748;8.102;2022-12-31T06:19:57;94511.00;;;12.80
15575;BMP180;7888;46.748;8.102;2022-12-31T06:22:24;94518.00;;;12.80
15575;BMP180;7888;46.748;8.102;2022-12-31T06:24:50;94506.00;;;12.80
15575;BMP180;7888;46.748;8.102;2022-12-31T06:27:16;94522.00;;;12.90
15575;BMP180;7888;46.748;8.102;2022-12-31T06:29:42;94526.00;;;12.90
15575;BMP180;7888;46.748;8.102;2022-12-31T06:32:08;94524.00;;;13.00
15575;BMP180;7888;46.748;8.102;2022-12-31T06:34:34;94518.00;;;13.00
15575;BMP180;7888;46.748;8.102;2022-12-31T06:37:00;94520.00;;;13.00
15575;BMP180;7888;46.748;8.102;2022-12-31T06:39:26;94523.00;;;13.00
15575;BMP180;7888;46.748;8.102;2022-12-31T06:41:52;94518.00;;;13.00
15575;BMP180;7888;46.748;8.102;2022-12-31T06:44:18;94525.00;;;13.10
15575;BMP180;7888;46.748;8.102;2022-12-31T06:46:47;94522.00;;;13.10
15575;BMP180;7888;46.748;8.102;2022-12-31T06:49:14;94523.00;;;13.10
15575;BMP180;7888;46.748;8.102;2022-12-31T06:51:40;94520.00;;;13.10
15575;BMP180;7888;46.748;8.102;2022-12-31T06:54:06;94531.00;;;13.10
15575;BMP180;7888;46.748;8.102;2022-12-31T06:56:32;94528.00;;;13.00
15575;BMP180;7888;46.748;8.102;2022-12-31T06:58:59;94528.00;;;13.00
15575;BMP180;7888;46.748;8.102;2022-12-31T07:01:50;94527.00;;;12.90
15575;BMP180;7888;46.748;8.102;2022-12-31T07:10:25;94533.00;;;12.80
15575;BMP180;7888;46.748;8.102;2022-12-31T07:21:42;94519.00;;;12.80
15575;BMP180;7888;46.748;8.102;2022-12-31T07:24:10;94513.00;;;12.80
15575;BMP180;7888;46.748;8.102;2022-12-31T07:27:27;94517.00;;;12.70
15575;BMP180;7888;46.748;8.102;2022-12-31T07:30:20;94515.00;;;12.80
15575;BMP180;7888;46.748;8.102;2022-12-31T07:33:24;94526.00;;;12.80
15575;BMP180;7888;46.748;8.102;2022-12-31T07:39:07;94521.00;;;12.80
15575;BMP180;7888;46.748;8.102;2022-12-31T07:42:10;94535.00;;;12.70
15575;BMP180;7888;46.748;8.102;2022-12-31T07:45:23;94525.00;;;12.70
15575;BMP180;7888;46.748;8.102;2022-12-31T07:47:51;94524.00;;;12.70
15575;BMP180;7888;46.748;8.102;2022-12-31T07:50:18;94530.00;;;12.70
15575;BMP180;7888;46.748;8.102;2022-12-31T07:52:44;94531.00;;;12.80
15575;BMP180;7888;46.748;8.102;2022-12-31T07:55:11;94531.00;;;12.80
15575;BMP180;7888;46.748;8.102;2022-12-31T07:58:49;94551.00;;;12.70
15575;BMP180;7888;46.748;8.102;2022-12-31T08:00:51;94552.00;;;12.80
15575;BMP180;7888;46.748;8.102;2022-12-31T08:06:22;94563.00;;;12.80
15575;BMP180;7888;46.748;8.102;2022-12-31T08:09:05;94570.00;;;12.80
15575;BMP180;7888;46.748;8.102;2022-12-31T08:12:05;94555.00;;;12.80
15575;BMP180;7888;46.748;8.102;2022-12-31T08:14:42;94555.00;;;12.80
15575;BMP180;7888;46.748;8.102;2022-12-31T08:17:14;94559.00;;;12.80
15575;BMP180;7888;46.748;8.102;2022-12-31T08:19:41;94570.00;;;12.80
15575;BMP180;7888;46.748;8.102;2022-12-31T08:22:23;94557.00;;;12.80
15575;BMP180;7888;46.748;8.102;2022-12-31T08:28:10;94574.00;;;12.80
15575;BMP180;7888;46.748;8.102;2022-12-31T08:31:05;94581.00;;;12.80
15575;BMP180;7888;46.748;8.102;2022-12-31T08:45:09;94574.00;;;12.90
15575;BMP180;7888;46.748;8.102;2022-12-31T08:47:56;94571.00;;;12.80
15575;BMP180;7888;46.748;8.102;2022-12-31T08:50:24;94575.00;;;12.90
15575;BMP180;7888;46.748;8.102;2022-12-31T08:52:51;94570.00;;;12.90
15575;BMP180;7888;46.748;8.102;2022-12-31T08:55:18;94568.00;;;13.00
15575;BMP180;7888;46.748;8.102;2022-12-31T09:00:45;94564.00;;;13.00
15575;BMP180;7888;46.748;8.102;2022-12-31T09:06:31;94560.00;;;13.00
15575;BMP180;7888;46.748;8.102;2022-12-31T09:09:31;94551.00;;;13.00
15575;BMP180;7888;46.748;8.102;2022-12-31T09:15:05;94553.00;;;13.10
15575;BMP180;7888;46.748;8.102;2022-12-31T09:20:23;94536.00;;;13.10
15575;BMP180;7888;46.748;8.102;2022-12-31T09:22:51;94544.00;;;13.10
15575;BMP180;7888;46.748;8.102;2022-12-31T09:25:20;94546.00;;;13.10
15575;BMP180;7888;46.748;8.102;2022-12-31T09:28:10;94538.00;;;13.10
15575;BMP180;7888;46.748;8.102;2022-12-31T09:31:20;94525.00;;;13.10
15575;BMP180;7888;46.748;8.102;2022-12-31T09:34:18;94527.00;;;13.20
15575;BMP180;7888;46.748;8.102;2022-12-31T09:36:56;94525.00;;;13.20
15575;BMP180;7888;46.748;8.102;2022-12-31T09:39:45;94520.00;;;13.30
15575;BMP180;7888;46.748;8.102;2022-12-31T09:45:24;94541.00;;;13.40
15575;BMP180;7888;46.748;8.102;2022-12-31T09:57:21;94539.00;;;13.70
15575;BMP180;7888;46.748;8.102;2022-12-31T10:03:28;94539.00;;;13.90
15575;BMP180;7888;46.748;8.102;2022-12-31T10:06:17;94536.00;;;14.00
15575;BMP180;7888;46.748;8.102;2022-12-31T10:12:35;94537.00;;;14.20
15575;BMP180;7888;46.748;8.102;2022-12-31T10:21:43;94517.00;;;14.50
15575;BMP180;7888;46.748;8.102;2022-12-31T10:27:59;94507.00;;;14.70
15575;BMP180;7888;46.748;8.102;2022-12-31T10:30:33;94499.00;;;14.90
15575;BMP180;7888;46.748;8.102;2022-12-31T10:33:15;94490.00;;;15.00
15575;BMP180;7888;46.748;8.102;2022-12-31T10:36:19;94491.00;;;15.00
15575;BMP180;7888;46.748;8.102;2022-12-31T10:57:44;94467.00;;;15.50
15575;BMP180;7888;46.748;8.102;2022-12-31T11:00:21;94469.00;;;15.60
15575;BMP180;7888;46.748;8.102;2022-12-31T11:18:42;94440.00;;;16.40
15575;BMP180;7888;46.748;8.102;2022-12-31T11:25:06;94426.00;;;16.90
15575;BMP180;7888;46.748;8.102;2022-12-31T11:30:22;94420.00;;;17.40
15575;BMP180;7888;46.748;8.102;2022-12-31T11:33:33;94415.00;;;17.50
15575;BMP180;7888;46.748;8.102;2022-12-31T11:56:45;94376.00;;;18.00
15575;BMP180;7888;46.748;8.102;2022-12-31T11:59:14;94378.00;;;18.10
15575;BMP180;7888;46.748;8.102;2022-12-31T12:02:03;94361.00;;;18.20
15575;BMP180;7888;46.748;8.102;2022-12-31T12:04:35;94365.00;;;18.30
15575;BMP180;7888;46.748;8.102;2022-12-31T12:07:01;94348.00;;;18.40
15575;BMP180;7888;46.748;8.102;2022-12-31T12:09:33;94345.00;;;18.40
15575;BMP180;7888;46.748;8.102;2022-12-31T12:12:03;94343.00;;;18.40
15575;BMP180;7888;46.748;8.102;2022-12-31T12:14:40;94333.00;;;18.40
15575;BMP180;7888;46.748;8.102;2022-12-31T12:17:21;94340.00;;;18.50
15575;BMP180;7888;46.748;8.102;2022-12-31T12:19:53;94327.00;;;18.50
15575;BMP180;7888;46.748;8.102;2022-12-31T12:22:25;94341.00;;;18.50
15575;BMP180;7888;46.748;8.102;2022-12-31T12:25:17;94336.00;;;18.50
15575;BMP180;7888;46.748;8.102;2022-12-31T12:27:43;94339.00;;;18.50
15575;BMP180;7888;46.748;8.102;2022-12-31T12:30:18;94326.00;;;18.60
15575;BMP180;7888;46.748;8.102;2022-12-31T12:33:02;94324.00;;;18.50
15575;BMP180;7888;46.748;8.102;2022-12-31T12:35:34;94332.00;;;18.60
15575;BMP180;7888;46.748;8.102;2022-12-31T12:38:22;94334.00;;;18.50
15575;BMP180;7888;46.748;8.102;2022-12-31T12:41:18;94317.00;;;18.50
15575;BMP180;7888;46.748;8.102;2022-12-31T12:43:45;94323.00;;;18.60
15575;BMP180;7888;46.748;8.102;2022-12-31T12:46:51;94318.00;;;18.50
15575;BMP180;7888;46.748;8.102;2022-12-31T12:49:30;94315.00;;;18.50
15575;BMP180;7888;46.748;8.102;2022-12-31T12:52:36;94311.00;;;18.50
15575;BMP180;7888;46.748;8.102;2022-12-31T13:01:09;94301.00;;;18.50
15575;BMP180;7888;46.748;8.102;2022-12-31T13:06:59;94316.00;;;18.50
15575;BMP180;7888;46.748;8.102;2022-12-31T13:12:50;94323.00;;;18.40
15575;BMP180;7888;46.748;8.102;2022-12-31T13:15:43;94324.00;;;18.30
15575;BMP180;7888;46.748;8.102;2022-12-31T13:21:25;94320.00;;;18.20
15575;BMP180;7888;46.748;8.102;2022-12-31T13:24:14;94303.00;;;18.10
15575;BMP180;7888;46.748;8.102;2022-12-31T13:29:35;94302.00;;;18.00
15575;BMP180;7888;46.748;8.102;2022-12-31T13:32:06;94298.00;;;18.00
15575;BMP180;7888;46.748;8.102;2022-12-31T13:34:39;94298.00;;;17.90
15575;BMP180;7888;46.748;8.102;2022-12-31T13:37:29;94302.00;;;17.90
15575;BMP180;7888;46.748;8.102;2022-12-31T13:40:18;94311.00;;;17.90
15575;BMP180;7888;46.748;8.102;2022-12-31T13:43:12;94309.00;;;17.90
15575;BMP180;7888;46.748;8.102;2022-12-31T13:45:55;94301.00;;;17.90
15575;BMP180;7888;46.748;8.102;2022-12-31T13:48:35;94300.00;;;17.80
15575;BMP180;7888;46.748;8.102;2022-12-31T13:51:14;94314.00;;;17.80
15575;BMP180;7888;46.748;8.102;2022-12-31T13:54:00;94307.00;;;17.80
15575;BMP180;7888;46.748;8.102;2022-12-31T13:56:35;94320.00;;;17.80
15575;BMP180;7888;46.748;8.102;2022-12-31T13:59:16;94328.00;;;17.70
15575;BMP180;7888;46.748;8.102;2022-12-31T14:02:02;94338.00;;;17.70
15575;BMP180;7888;46.748;8.102;2022-12-31T14:04:59;94355.00;;;17.70
15575;BMP180;7888;46.748;8.102;2022-12-31T14:07:37;94365.00;;;17.70
15575;BMP180;7888;46.748;8.102;2022-12-31T14:10:23;94348.00;;;17.60
15575;BMP180;7888;46.748;8.102;2022-12-31T14:15:46;94361.00;;;17.60
15575;BMP180;7888;46.748;8.102;2022-12-31T14:19:22;94376.00;;;17.50
15575;BMP180;7888;46.748;8.102;2022-12-31T14:22:19;94375.00;;;17.50
15575;BMP180;7888;46.748;8.102;2022-12-31T14:24:49;94379.00;;;17.50
15575;BMP180;7888;46.748;8.102;2022-12-31T14:27:20;94374.00;;;17.50
15575;BMP180;7888;46.748;8.102;2022-12-31T14:30:02;94374.00;;;17.50
15575;BMP180;7888;46.748;8.102;2022-12-31T14:35:58;94378.00;;;17.50
15575;BMP180;7888;46.748;8.102;2022-12-31T14:38:46;94380.00;;;17.40
15575;BMP180;7888;46.748;8.102;2022-12-31T14:47:43;94385.00;;;17.30
15575;BMP180;7888;46.748;8.102;2022-12-31T14:50:13;94394.00;;;17.30
15575;BMP180;7888;46.748;8.102;2022-12-31T14:53:16;94417.00;;;17.20
15575;BMP180;7888;46.748;8.102;2022-12-31T14:55:43;94421.00;;;17.30
15575;BMP180;7888;46.748;8.102;2022-12-31T15:01:03;94441.00;;;17.20
15575;BMP180;7888;46.748;8.102;2022-12-31T15:03:40;94435.00;;;17.20
15575;BMP180;7888;46.748;8.102;2022-12-31T15:09:08;94442.00;;;17.10
15575;BMP180;7888;46.748;8.102;2022-12-31T15:12:09;94437.00;;;17.00
15575;BMP180;7888;46.748;8.102;2022-12-31T15:18:03;94458.00;;;16.90
15575;BMP180;7888;46.748;8.102;2022-12-31T15:23:21;94465.00;;;16.80
15575;BMP180;7888;46.748;8.102;2022-12-31T15:25:57;94470.00;;;16.80
15575;BMP180;7888;46.748;8.102;2022-12-31T15:36:24;94468.00;;;16.60
15575;BMP180;7888;46.748;8.102;2022-12-31T15:39:04;94476.00;;;16.50
15575;BMP180;7888;46.748;8.102;2022-12-31T15:41:43;94484.00;;;16.50
15575;BMP180;7888;46.748;8.102;2022-12-31T15:44:55;94486.00;;;16.30
15575;BMP180;7888;46.748;8.102;2022-12-31T15:47:40;94484.00;;;16.30
15575;BMP180;7888;46.748;8.102;2022-12-31T15:50:17;94494.00;;;16.30
15575;BMP180;7888;46.748;8.102;2022-12-31T15:53:05;94492.00;;;16.20
15575;BMP180;7888;46.748;8.102;2022-12-31T15:55:46;94485.00;;;16.20
15575;BMP180;7888;46.748;8.102;2022-12-31T15:58:22;94486.00;;;16.20
15575;BMP180;7888;46.748;8.102;2022-12-31T16:04:00;94484.00;;;16.00
15575;BMP180;7888;46.748;8.102;2022-12-31T16:06:32;94493.00;;;16.00
15575;BMP180;7888;46.748;8.102;2022-12-31T16:09:00;94489.00;;;16.00
15575;BMP180;7888;46.748;8.102;2022-12-31T16:11:26;94493.00;;;15.90
15575;BMP180;7888;46.748;8.102;2022-12-31T16:13:56;94504.00;;;15.90
15575;BMP180;7888;46.748;8.102;2022-12-31T16:16:30;94505.00;;;15.80
15575;BMP180;7888;46.748;8.102;2022-12-31T16:18:58;94501.00;;;15.80
15575;BMP180;7888;46.748;8.102;2022-12-31T16:21:30;94506.00;;;15.70
15575;BMP180;7888;46.748;8.102;2022-12-31T16:24:17;94513.00;;;15.70
15575;BMP180;7888;46.748;8.102;2022-12-31T16:26:48;94515.00;;;15.60
15575;BMP180;7888;46.748;8.102;2022-12-31T16:29:20;94512.00;;;15.60
15575;BMP180;7888;46.748;8.102;2022-12-31T16:31:49;94505.00;;;15.60
15575;BMP180;7888;46.748;8.102;2022-12-31T16:34:21;94517.00;;;15.50
15575;BMP180;7888;46.748;8.102;2022-12-31T16:36:59;94505.00;;;15.50
15575;BMP180;7888;46.748;8.102;2022-12-31T16:39:33;94512.00;;;15.40
15575;BMP180;7888;46.748;8.102;2022-12-31T16:42:20;94516.00;;;15.40
15575;BMP180;7888;46.748;8.102;2022-12-31T16:44:47;94509.00;;;15.30
15575;BMP180;7888;46.748;8.102;2022-12-31T16:47:34;94508.00;;;15.20
15575;BMP180;7888;46.748;8.102;2022-12-31T16:50:20;94508.00;;;15.20
15575;BMP180;7888;46.748;8.102;2022-12-31T16:52:54;94505.00;;;15.20
15575;BMP180;7888;46.748;8.102;2022-12-31T16:55:25;94504.00;;;15.10
15575;BMP180;7888;46.748;8.102;2022-12-31T16:58:19;94501.00;;;15.10
15575;BMP180;7888;46.748;8.102;2022-12-31T17:00:49;94507.00;;;15.10
15575;BMP180;7888;46.748;8.102;2022-12-31T17:03:22;94500.00;;;15.00
15575;BMP180;7888;46.748;8.102;2022-12-31T17:12:17;94512.00;;;14.90
15575;BMP180;7888;46.748;8.102;2022-12-31T17:14:50;94514.00;;;14.90
15575;BMP180;7888;46.748;8.102;2022-12-31T17:17:28;94512.00;;;14.90
15575;BMP180;7888;46.748;8.102;2022-12-31T17:20:01;94511.00;;;14.90
15575;BMP180;7888;46.748;8.102;2022-12-31T17:25:07;94496.00;;;14.80
15575;BMP180;7888;46.748;8.102;2022-12-31T17:27:35;94486.00;;;14.80
15575;BMP180;7888;46.748;8.102;2022-12-31T17:36:19;94500.00;;;14.70
15575;BMP180;7888;46.748;8.102;2022-12-31T17:38:45;94498.00;;;14.70
15575;BMP180;7888;46.748;8.102;2022-12-31T17:41:23;94497.00;;;14.60
15575;BMP180;7888;46.748;8.102;2022-12-31T17:43:53;94503.00;;;14.70
15575;BMP180;7888;46.748;8.102;2022-12-31T17:46:21;94498.00;;;14.60
15575;BMP180;7888;46.748;8.102;2022-12-31T17:49:00;94504.00;;;14.60
15575;BMP180;7888;46.748;8.102;2022-12-31T17:51:26;94494.00;;;14.60
15575;BMP180;7888;46.748;8.102;2022-12-31T17:53:52;94491.00;;;14.60
15575;BMP180;7888;46.748;8.102;2022-12-31T17:56:19;94495.00;;;14.60
15575;BMP180;7888;46.748;8.102;2022-12-31T17:58:51;94494.00;;;14.60
15575;BMP180;7888;46.748;8.102;2022-12-31T18:01:21;94493.00;;;14.50
15575;BMP180;7888;46.748;8.102;2022-12-31T18:03:48;94496.00;;;14.50
15575;BMP180;7888;46.748;8.102;2022-12-31T18:06:16;94499.00;;;14.50
15575;BMP180;7888;46.748;8.102;2022-12-31T18:08:43;94499.00;;;14.50
15575;BMP180;7888;46.748;8.102;2022-12-31T18:11:19;94490.00;;;14.40
15575;BMP180;7888;46.748;8.102;2022-12-31T18:13:47;94498.00;;;14.40
15575;BMP180;7888;46.748;8.102;2022-12-31T18:16:14;94500.00;;;14.40
15575;BMP180;7888;46.748;8.102;2022-12-31T18:18:40;94501.00;;;14.40
15575;BMP180;7888;46.748;8.102;2022-12-31T18:21:15;94502.00;;;14.40
15575;BMP180;7888;46.748;8.102;2022-12-31T18:23:45;94489.00;;;14.40
15575;BMP180;7888;46.748;8.102;2022-12-31T18:26:19;94497.00;;;14.40
15575;BMP180;7888;46.748;8.102;2022-12-31T18:28:46;94489.00;;;14.40
15575;BMP180;7888;46.748;8.102;2022-12-31T18:31:23;94492.00;;;14.30
15575;BMP180;7888;46.748;8.102;2022-12-31T18:33:51;94500.00;;;14.30
15575;BMP180;7888;46.748;8.102;2022-12-31T18:36:20;94504.00;;;14.30
15575;BMP180;7888;46.748;8.102;2022-12-31T18:38:47;94504.00;;;14.30
15575;BMP180;7888;46.748;8.102;2022-12-31T18:41:23;94508.00;;;14.30
15575;BMP180;7888;46.748;8.102;2022-12-31T18:43:51;94514.00;;;14.30
15575;BMP180;7888;46.748;8.102;2022-12-31T18:46:21;94520.00;;;14.20
15575;BMP180;7888;46.748;8.102;2022-12-31T18:48:47;94514.00;;;14.30
15575;BMP180;7888;46.748;8.102;2022-12-31T18:51:17;94512.00;;;14.20
15575;BMP180;7888;46.748;8.102;2022-12-31T18:53:43;94523.00;;;14.20
15575;BMP180;7888;46.748;8.102;2022-12-31T18:56:16;94512.00;;;14.20
15575;BMP180;7888;46.748;8.102;2022-12-31T18:58:43;94519.00;;;14.20
15575;BMP180;7888;46.748;8.102;2022-12-31T19:03:59;94503.00;;;14.10